sensor_id;sensor_type;location;lat;lon;timestamp;P1;durP1;ratioP1;P2;durP2;ratioP2
22565;SDS011;11449;51.330;19.378;2022-08-07T00:02:37;8.53;;;3.60;;
22565;SDS011;11449;51.330;19.378;2022-08-07T00:07:38;7.87;;;4.35;;
22565;SDS011;11449;51.330;19.378;2022-08-07T00:12:40;9.68;;;5.42;;
22565;SDS011;11449;51.330;19.378;2022-08-07T00:17:43;8.50;;;4.90;;
22565;SDS011;11449;51.330;19.378;2022-08-07T00:22:44;10.48;;;5.42;;
22565;SDS011;11449;51.330;19.378;2022-08-07T00:27:46;9.78;;;5.97;;
22565;SDS011;11449;51.330;19.378;2022-08-07T00:32:47;12.82;;;8.53;;
22565;SDS011;11449;51.330;19.378;2022-08-07T00:37:49;24.57;;;17.70;;
22565;SDS011;11449;51.330;19.378;2022-08-07T00:42:50;22.55;;;17.42;;
22565;SDS011;11449;51.330;19.378;2022-08-07T00:47:52;20.90;;;14.45;;
22565;SDS011;11449;51.330;19.378;2022-08-07T00:52:53;8.70;;;5.17;;
22565;SDS011;11449;51.330;19.378;2022-08-07T00:57:54;12.50;;;9.98;;
22565;SDS011;11449;51.330;19.378;2022-08-07T01:02:56;11.93;;;7.42;;
22565;SDS011;11449;51.330;19.378;2022-08-07T01:07:57;19.12;;;11.43;;
22565;SDS011;11449;51.330;19.378;2022-08-07T01:12:58;10.50;;;7.35;;
22565;SDS011;11449;51.330;19.378;2022-08-07T01:18:00;6.78;;;4.70;;
22565;SDS011;11449;51.330;19.378;2022-08-07T01:23:02;13.53;;;8.03;;
22565;SDS011;11449;51.330;19.378;2022-08-07T01:28:04;9.33;;;6.22;;
22565;SDS011;11449;51.330;19.378;2022-08-07T01:33:06;5.62;;;3.35;;
22565;SDS011;11449;51.330;19.378;2022-08-07T01:38:07;4.90;;;2.45;;
22565;SDS011;11449;51.330;19.378;2022-08-07T01:43:09;8.10;;;4.75;;
22565;SDS011;11449;51.330;19.378;2022-08-07T01:48:11;9.10;;;7.72;;
22565;SDS011;11449;51.330;19.378;2022-08-07T01:53:14;13.68;;;8.85;;
22565;SDS011;11449;51.330;19.378;2022-08-07T01:58:19;8.35;;;4.37;;
22565;SDS011;11449;51.330;19.378;2022-08-07T02:03:22;8.73;;;4.87;;
22565;SDS011;11449;51.330;19.378;2022-08-07T02:08:25;6.42;;;4.60;;
22565;SDS011;11449;51.330;19.378;2022-08-07T02:13:28;5.30;;;3.45;;
22565;SDS011;11449;51.330;19.378;2022-08-07T02:18:33;7.08;;;3.70;;
22565;SDS011;11449;51.330;19.378;2022-08-07T02:23:38;3.75;;;2.85;;
22565;SDS011;11449;51.330;19.378;2022-08-07T02:28:40;4.35;;;2.70;;
22565;SDS011;11449;51.330;19.378;2022-08-07T02:33:43;2.90;;;2.40;;
22565;SDS011;11449;51.330;19.378;2022-08-07T02:38:48;2.87;;;2.42;;
22565;SDS011;11449;51.330;19.378;2022-08-07T02:43:52;3.02;;;2.45;;
22565;SDS011;11449;51.330;19.378;2022-08-07T02:48:55;4.15;;;2.72;;
22565;SDS011;11449;51.330;19.378;2022-08-07T02:53:59;5.80;;;2.52;;
22565;SDS011;11449;51.330;19.378;2022-08-07T02:59:02;3.17;;;2.30;;
22565;SDS011;11449;51.330;19.378;2022-08-07T03:04:08;3.70;;;2.70;;
22565;SDS011;11449;51.330;19.378;2022-08-07T03:09:10;6.62;;;2.87;;
22565;SDS011;11449;51.330;19.378;2022-08-07T03:14:13;8.05;;;3.05;;
22565;SDS011;11449;51.330;19.378;2022-08-07T03:19:15;5.45;;;2.58;;
22565;SDS011;11449;51.330;19.378;2022-08-07T03:24:16;5.03;;;2.80;;
22565;SDS011;11449;51.330;19.378;2022-08-07T03:29:18;7.90;;;2.62;;
22565;SDS011;11449;51.330;19.378;2022-08-07T03:34:21;4.65;;;2.22;;
22565;SDS011;11449;51.330;19.378;2022-08-07T03:39:25;4.40;;;2.40;;
22565;SDS011;11449;51.330;19.378;2022-08-07T03:44:30;4.60;;;2.42;;
22565;SDS011;11449;51.330;19.378;2022-08-07T03:49:34;9.08;;;3.12;;
22565;SDS011;11449;51.330;19.378;2022-08-07T03:54:36;10.00;;;3.60;;
22565;SDS011;11449;51.330;19.378;2022-08-07T03:59:39;6.28;;;3.33;;
22565;SDS011;11449;51.330;19.378;2022-08-07T04:04:42;7.37;;;2.92;;
22565;SDS011;11449;51.330;19.378;2022-08-07T04:09:46;12.28;;;3.42;;
22565;SDS011;11449;51.330;19.378;2022-08-07T04:14:49;3.62;;;2.37;;
22565;SDS011;11449;51.330;19.378;2022-08-07T04:19:52;3.33;;;2.72;;
22565;SDS011;11449;51.330;19.378;2022-08-07T04:24:53;6.28;;;2.70;;
22565;SDS011;11449;51.330;19.378;2022-08-07T04:29:55;4.42;;;2.90;;
22565;SDS011;11449;51.330;19.378;2022-08-07T04:34:57;7.92;;;3.47;;
22565;SDS011;11449;51.330;19.378;2022-08-07T04:39:59;4.17;;;3.10;;
22565;SDS011;11449;51.330;19.378;2022-08-07T04:45:02;7.33;;;3.52;;
22565;SDS011;11449;51.330;19.378;2022-08-07T04:50:09;7.33;;;3.05;;
22565;SDS011;11449;51.330;19.378;2022-08-07T05:00:36;6.08;;;3.00;;
22565;SDS011;11449;51.330;19.378;2022-08-07T05:10:48;5.55;;;2.80;;
22565;SDS011;11449;51.330;19.378;2022-08-07T05:15:54;5.45;;;2.80;;
22565;SDS011;11449;51.330;19.378;2022-08-07T05:20:59;5.47;;;2.35;;
22565;SDS011;11449;51.330;19.378;2022-08-07T05:26:03;6.12;;;2.10;;
22565;SDS011;11449;51.330;19.378;2022-08-07T05:31:06;3.47;;;1.62;;
22565;SDS011;11449;51.330;19.378;2022-08-07T05:36:10;5.60;;;2.12;;
22565;SDS011;11449;51.330;19.378;2022-08-07T05:41:14;3.52;;;1.75;;
22565;SDS011;11449;51.330;19.378;2022-08-07T05:46:17;2.87;;;1.65;;
22565;SDS011;11449;51.330;19.378;2022-08-07T05:51:20;5.30;;;1.75;;
22565;SDS011;11449;51.330;19.378;2022-08-07T05:56:24;7.30;;;2.50;;
22565;SDS011;11449;51.330;19.378;2022-08-07T06:01:28;6.10;;;2.27;;
22565;SDS011;11449;51.330;19.378;2022-08-07T06:06:31;3.60;;;2.45;;
22565;SDS011;11449;51.330;19.378;2022-08-07T06:11:36;6.87;;;2.15;;
22565;SDS011;11449;51.330;19.378;2022-08-07T06:16:38;5.22;;;2.55;;
22565;SDS011;11449;51.330;19.378;2022-08-07T06:21:40;6.90;;;2.10;;
22565;SDS011;11449;51.330;19.378;2022-08-07T06:26:44;3.87;;;2.17;;
22565;SDS011;11449;51.330;19.378;2022-08-07T06:31:46;5.87;;;2.05;;
22565;SDS011;11449;51.330;19.378;2022-08-07T06:36:48;6.62;;;2.00;;
22565;SDS011;11449;51.330;19.378;2022-08-07T06:42:03;3.22;;;2.08;;
22565;SDS011;11449;51.330;19.378;2022-08-07T06:47:10;5.22;;;1.90;;
22565;SDS011;11449;51.330;19.378;2022-08-07T06:52:12;3.80;;;1.67;;
22565;SDS011;11449;51.330;19.378;2022-08-07T06:57:16;3.77;;;1.87;;
22565;SDS011;11449;51.330;19.378;2022-08-07T07:02:20;4.62;;;1.80;;
22565;SDS011;11449;51.330;19.378;2022-08-07T07:07:22;5.87;;;1.70;;
22565;SDS011;11449;51.330;19.378;2022-08-07T07:12:44;2.75;;;1.50;;
22565;SDS011;11449;51.330;19.378;2022-08-07T07:18:07;3.35;;;1.67;;
22565;SDS011;11449;51.330;19.378;2022-08-07T07:23:18;6.53;;;1.62;;
22565;SDS011;11449;51.330;19.378;2022-08-07T07:28:22;4.87;;;2.12;;
22565;SDS011;11449;51.330;19.378;2022-08-07T07:33:31;3.10;;;1.40;;
22565;SDS011;11449;51.330;19.378;2022-08-07T07:38:34;4.58;;;1.62;;
22565;SDS011;11449;51.330;19.378;2022-08-07T07:43:38;3.20;;;1.55;;
22565;SDS011;11449;51.330;19.378;2022-08-07T07:48:42;4.58;;;1.80;;
22565;SDS011;11449;51.330;19.378;2022-08-07T07:53:46;2.62;;;1.55;;
22565;SDS011;11449;51.330;19.378;2022-08-07T07:58:47;3.42;;;1.67;;
22565;SDS011;11449;51.330;19.378;2022-08-07T08:03:50;8.50;;;1.80;;
22565;SDS011;11449;51.330;19.378;2022-08-07T08:08:53;6.25;;;1.47;;
22565;SDS011;11449;51.330;19.378;2022-08-07T08:13:56;2.37;;;1.30;;
22565;SDS011;11449;51.330;19.378;2022-08-07T08:18:58;3.40;;;1.55;;
22565;SDS011;11449;51.330;19.378;2022-08-07T08:24:04;4.55;;;1.40;;
22565;SDS011;11449;51.330;19.378;2022-08-07T08:29:25;3.98;;;1.15;;
22565;SDS011;11449;51.330;19.378;2022-08-07T08:34:28;3.92;;;1.47;;
22565;SDS011;11449;51.330;19.378;2022-08-07T08:39:31;4.45;;;1.40;;
22565;SDS011;11449;51.330;19.378;2022-08-07T08:44:42;5.45;;;1.50;;
22565;SDS011;11449;51.330;19.378;2022-08-07T08:55:13;2.30;;;0.95;;
22565;SDS011;11449;51.330;19.378;2022-08-07T09:00:16;1.45;;;1.05;;
22565;SDS011;11449;51.330;19.378;2022-08-07T09:10:41;1.52;;;1.20;;
22565;SDS011;11449;51.330;19.378;2022-08-07T09:31:34;2.52;;;0.90;;
22565;SDS011;11449;51.330;19.378;2022-08-07T09:52:41;3.22;;;1.07;;
22565;SDS011;11449;51.330;19.378;2022-08-07T10:03:12;2.80;;;1.00;;
22565;SDS011;11449;51.330;19.378;2022-08-07T10:34:56;2.50;;;1.22;;
22565;SDS011;11449;51.330;19.378;2022-08-07T10:40:18;3.72;;;1.02;;
22565;SDS011;11449;51.330;19.378;2022-08-07T10:45:38;3.33;;;0.80;;
22565;SDS011;11449;51.330;19.378;2022-08-07T10:50:56;4.28;;;0.72;;
22565;SDS011;11449;51.330;19.378;2022-08-07T10:56:04;6.62;;;4.17;;
22565;SDS011;11449;51.330;19.378;2022-08-07T11:11:57;2.12;;;0.82;;
22565;SDS011;11449;51.330;19.378;2022-08-07T11:17:13;2.55;;;0.60;;
22565;SDS011;11449;51.330;19.378;2022-08-07T11:22:37;4.62;;;0.78;;
22565;SDS011;11449;51.330;19.378;2022-08-07T11:32:51;1.98;;;0.65;;
22565;SDS011;11449;51.330;19.378;2022-08-07T11:38:08;2.22;;;0.75;;
22565;SDS011;11449;51.330;19.378;2022-08-07T11:43:19;0.98;;;0.60;;
22565;SDS011;11449;51.330;19.378;2022-08-07T12:10:03;2.45;;;1.10;;
22565;SDS011;11449;51.330;19.378;2022-08-07T12:20:43;2.08;;;0.65;;
22565;SDS011;11449;51.330;19.378;2022-08-07T12:25:50;1.40;;;0.50;;
22565;SDS011;11449;51.330;19.378;2022-08-07T12:30:52;3.22;;;0.80;;
22565;SDS011;11449;51.330;19.378;2022-08-07T12:35:57;20.85;;;2.87;;
22565;SDS011;11449;51.330;19.378;2022-08-07T12:41:00;1.77;;;1.10;;
22565;SDS011;11449;51.330;19.378;2022-08-07T12:51:18;0.98;;;0.88;;
22565;SDS011;11449;51.330;19.378;2022-08-07T13:01:32;3.52;;;1.80;;
22565;SDS011;11449;51.330;19.378;2022-08-07T13:07:13;1.20;;;1.00;;
22565;SDS011;11449;51.330;19.378;2022-08-07T13:17:45;17.57;;;3.02;;
22565;SDS011;11449;51.330;19.378;2022-08-07T13:22:51;14.80;;;2.67;;
22565;SDS011;11449;51.330;19.378;2022-08-07T13:27:57;32.15;;;26.90;;
22565;SDS011;11449;51.330;19.378;2022-08-07T13:39:00;1.32;;;0.72;;
22565;SDS011;11449;51.330;19.378;2022-08-07T13:48:45;2.22;;;0.80;;
22565;SDS011;11449;51.330;19.378;2022-08-07T13:53:53;3.02;;;0.98;;
22565;SDS011;11449;51.330;19.378;2022-08-07T13:59:03;2.10;;;0.98;;
22565;SDS011;11449;51.330;19.378;2022-08-07T14:04:15;2.42;;;1.10;;
22565;SDS011;11449;51.330;19.378;2022-08-07T14:09:25;1.22;;;0.80;;
22565;SDS011;11449;51.330;19.378;2022-08-07T14:14:29;1.57;;;0.80;;
22565;SDS011;11449;51.330;19.378;2022-08-07T14:19:49;2.10;;;0.75;;
22565;SDS011;11449;51.330;19.378;2022-08-07T14:24:55;3.10;;;0.80;;
22565;SDS011;11449;51.330;19.378;2022-08-07T14:30:00;1.77;;;0.70;;
22565;SDS011;11449;51.330;19.378;2022-08-07T14:35:09;1.75;;;0.80;;
22565;SDS011;11449;51.330;19.378;2022-08-07T14:40:13;0.70;;;0.60;;
22565;SDS011;11449;51.330;19.378;2022-08-07T14:45:16;1.82;;;0.80;;
22565;SDS011;11449;51.330;19.378;2022-08-07T14:50:18;1.27;;;0.72;;
22565;SDS011;11449;51.330;19.378;2022-08-07T14:55:26;3.02;;;2.60;;
22565;SDS011;11449;51.330;19.378;2022-08-07T15:00:33;2.27;;;1.45;;
22565;SDS011;11449;51.330;19.378;2022-08-07T15:05:36;3.20;;;1.00;;
22565;SDS011;11449;51.330;19.378;2022-08-07T15:10:39;3.02;;;0.80;;
22565;SDS011;11449;51.330;19.378;2022-08-07T15:15:42;2.67;;;0.88;;
22565;SDS011;11449;51.330;19.378;2022-08-07T15:20:49;13.43;;;8.68;;
22565;SDS011;11449;51.330;19.378;2022-08-07T15:25:56;2.33;;;1.47;;
22565;SDS011;11449;51.330;19.378;2022-08-07T15:31:00;4.75;;;1.60;;
22565;SDS011;11449;51.330;19.378;2022-08-07T15:36:03;3.00;;;0.88;;
22565;SDS011;11449;51.330;19.378;2022-08-07T15:41:10;2.33;;;1.82;;
22565;SDS011;11449;51.330;19.378;2022-08-07T15:46:18;3.00;;;0.90;;
22565;SDS011;11449;51.330;19.378;2022-08-07T15:51:21;1.80;;;0.90;;
22565;SDS011;11449;51.330;19.378;2022-08-07T16:01:38;1.55;;;0.90;;
22565;SDS011;11449;51.330;19.378;2022-08-07T16:06:51;1.80;;;1.00;;
22565;SDS011;11449;51.330;19.378;2022-08-07T16:17:22;5.72;;;1.40;;
22565;SDS011;11449;51.330;19.378;2022-08-07T16:22:46;1.75;;;1.07;;
22565;SDS011;11449;51.330;19.378;2022-08-07T16:33:25;9.83;;;4.92;;
22565;SDS011;11449;51.330;19.378;2022-08-07T16:54:38;2.25;;;0.70;;
22565;SDS011;11449;51.330;19.378;2022-08-07T17:00:08;1.37;;;1.27;;
22565;SDS011;11449;51.330;19.378;2022-08-07T17:21:28;3.35;;;1.90;;
22565;SDS011;11449;51.330;19.378;2022-08-07T17:32:05;3.02;;;1.47;;
22565;SDS011;11449;51.330;19.378;2022-08-07T17:37:53;3.35;;;1.20;;
22565;SDS011;11449;51.330;19.378;2022-08-07T17:43:15;2.37;;;1.30;;
22565;SDS011;11449;51.330;19.378;2022-08-07T17:53:10;2.37;;;1.02;;
22565;SDS011;11449;51.330;19.378;2022-08-07T17:58:18;1.95;;;1.60;;
22565;SDS011;11449;51.330;19.378;2022-08-07T18:13:53;3.80;;;2.25;;
22565;SDS011;11449;51.330;19.378;2022-08-07T18:19:12;8.85;;;5.50;;
22565;SDS011;11449;51.330;19.378;2022-08-07T18:24:23;7.97;;;4.22;;
22565;SDS011;11449;51.330;19.378;2022-08-07T18:29:35;9.50;;;3.00;;
22565;SDS011;11449;51.330;19.378;2022-08-07T18:45:46;14.35;;;7.22;;
22565;SDS011;11449;51.330;19.378;2022-08-07T18:51:02;15.10;;;6.12;;
22565;SDS011;11449;51.330;19.378;2022-08-07T18:56:18;10.25;;;4.00;;
22565;SDS011;11449;51.330;19.378;2022-08-07T19:16:59;11.18;;;4.60;;
22565;SDS011;11449;51.330;19.378;2022-08-07T19:22:08;30.90;;;6.30;;
22565;SDS011;11449;51.330;19.378;2022-08-07T19:27:23;49.77;;;6.67;;
22565;SDS011;11449;51.330;19.378;2022-08-07T19:32:28;48.13;;;6.62;;
22565;SDS011;11449;51.330;19.378;2022-08-07T19:37:32;57.38;;;7.15;;
22565;SDS011;11449;51.330;19.378;2022-08-07T19:42:39;61.33;;;7.65;;
22565;SDS011;11449;51.330;19.378;2022-08-07T19:47:42;74.75;;;9.73;;
22565;SDS011;11449;51.330;19.378;2022-08-07T19:52:47;152.05;;;117.40;;
22565;SDS011;11449;51.330;19.378;2022-08-07T19:57:51;64.35;;;10.40;;
22565;SDS011;11449;51.330;19.378;2022-08-07T20:03:04;6.00;;;3.85;;
22565;SDS011;11449;51.330;19.378;2022-08-07T20:08:08;22.60;;;12.50;;
22565;SDS011;11449;51.330;19.378;2022-08-07T20:13:16;10.70;;;6.53;;
22565;SDS011;11449;51.330;19.378;2022-08-07T20:18:20;11.95;;;5.80;;
22565;SDS011;11449;51.330;19.378;2022-08-07T20:23:22;7.08;;;3.45;;
22565;SDS011;11449;51.330;19.378;2022-08-07T20:28:24;7.55;;;5.08;;
22565;SDS011;11449;51.330;19.378;2022-08-07T20:33:29;9.50;;;5.20;;
22565;SDS011;11449;51.330;19.378;2022-08-07T20:38:31;8.80;;;5.55;;
22565;SDS011;11449;51.330;19.378;2022-08-07T20:43:35;14.95;;;6.10;;
22565;SDS011;11449;51.330;19.378;2022-08-07T20:48:37;20.45;;;9.63;;
22565;SDS011;11449;51.330;19.378;2022-08-07T20:53:41;29.27;;;11.05;;
22565;SDS011;11449;51.330;19.378;2022-08-07T20:58:43;13.28;;;7.78;;
22565;SDS011;11449;51.330;19.378;2022-08-07T21:03:49;12.80;;;5.85;;
22565;SDS011;11449;51.330;19.378;2022-08-07T21:14:06;7.17;;;4.20;;
22565;SDS011;11449;51.330;19.378;2022-08-07T21:19:10;9.68;;;5.35;;
22565;SDS011;11449;51.330;19.378;2022-08-07T21:24:15;11.80;;;6.53;;
22565;SDS011;11449;51.330;19.378;2022-08-07T21:29:21;12.93;;;5.90;;
22565;SDS011;11449;51.330;19.378;2022-08-07T21:50:24;11.40;;;6.53;;
22565;SDS011;11449;51.330;19.378;2022-08-07T21:55:24;7.55;;;4.40;;
22565;SDS011;11449;51.330;19.378;2022-08-07T22:00:37;10.15;;;5.40;;
22565;SDS011;11449;51.330;19.378;2022-08-07T22:10:54;10.38;;;6.05;;
22565;SDS011;11449;51.330;19.378;2022-08-07T22:16:01;10.88;;;6.53;;
22565;SDS011;11449;51.330;19.378;2022-08-07T22:26:22;19.77;;;8.33;;
22565;SDS011;11449;51.330;19.378;2022-08-07T22:31:41;47.10;;;11.50;;
22565;SDS011;11449;51.330;19.378;2022-08-07T22:42:15;53.93;;;9.50;;
22565;SDS011;11449;51.330;19.378;2022-08-07T22:47:27;61.80;;;10.53;;
22565;SDS011;11449;51.330;19.378;2022-08-07T22:58:00;61.28;;;10.35;;
22565;SDS011;11449;51.330;19.378;2022-08-07T23:19:38;91.37;;;55.35;;
22565;SDS011;11449;51.330;19.378;2022-08-07T23:25:07;23.73;;;7.80;;
22565;SDS011;11449;51.330;19.378;2022-08-07T23:30:11;57.83;;;11.53;;
22565;SDS011;11449;51.330;19.378;2022-08-07T23:35:21;55.52;;;11.18;;
22565;SDS011;11449;51.330;19.378;2022-08-07T23:51:25;165.68;;;110.17;;
22565;SDS011;11449;51.330;19.378;2022-08-07T23:56:29;142.40;;;105.07;;
